sensor_id;sensor_type;location;lat;lon;timestamp;temperature;humidity
4390;DHT22;2209;48.982;8.406;2023-11-19T00:01:38;10.60;99.90
4390;DHT22;2209;48.982;8.406;2023-11-19T00:04:01;10.60;99.90
4390;DHT22;2209;48.982;8.406;2023-11-19T00:06:25;10.60;99.90
4390;DHT22;2209;48.982;8.406;2023-11-19T00:08:49;10.50;99.90
4390;DHT22;2209;48.982;8.406;2023-11-19T00:11:11;10.50;99.90
4390;DHT22;2209;48.982;8.406;2023-11-19T00:13:36;10.60;99.90
4390;DHT22;2209;48.982;8.406;2023-11-19T00:15:58;10.50;99.90
4390;DHT22;2209;48.982;8.406;2023-11-19T00:18:20;10.60;99.90
4390;DHT22;2209;48.982;8.406;2023-11-19T00:20:43;10.60;99.90
4390;DHT22;2209;48.982;8.406;2023-11-19T00:23:05;10.60;99.90
4390;DHT22;2209;48.982;8.406;2023-11-19T00:25:28;10.60;99.90
4390;DHT22;2209;48.982;8.406;2023-11-19T00:27:50;10.60;99.90
4390;DHT22;2209;48.982;8.406;2023-11-19T00:30:14;10.60;99.90
4390;DHT22;2209;48.982;8.406;2023-11-19T00:32:37;10.60;99.90
4390;DHT22;2209;48.982;8.406;2023-11-19T00:35:00;10.60;99.90
4390;DHT22;2209;48.982;8.406;2023-11-19T00:37:22;10.70;99.90
4390;DHT22;2209;48.982;8.406;2023-11-19T00:39:44;10.70;99.90
4390;DHT22;2209;48.982;8.406;2023-11-19T00:42:08;10.70;99.90
4390;DHT22;2209;48.982;8.406;2023-11-19T00:44:30;10.70;99.90
4390;DHT22;2209;48.982;8.406;2023-11-19T00:46:52;10.70;99.90
4390;DHT22;2209;48.982;8.406;2023-11-19T00:49:15;10.70;99.90
4390;DHT22;2209;48.982;8.406;2023-11-19T00:51:37;10.70;99.90
4390;DHT22;2209;48.982;8.406;2023-11-19T00:53:59;10.70;99.90
4390;DHT22;2209;48.982;8.406;2023-11-19T00:56:21;10.70;99.90
4390;DHT22;2209;48.982;8.406;2023-11-19T00:58:45;10.70;99.90
4390;DHT22;2209;48.982;8.406;2023-11-19T01:01:07;10.80;99.90
4390;DHT22;2209;48.982;8.406;2023-11-19T01:03:29;10.70;99.90
4390;DHT22;2209;48.982;8.406;2023-11-19T01:05:52;10.80;99.90
4390;DHT22;2209;48.982;8.406;2023-11-19T01:08:14;10.80;99.90
4390;DHT22;2209;48.982;8.406;2023-11-19T01:10:37;10.80;99.90
4390;DHT22;2209;48.982;8.406;2023-11-19T01:12:59;10.80;99.90
4390;DHT22;2209;48.982;8.406;2023-11-19T01:15:22;10.80;99.90
4390;DHT22;2209;48.982;8.406;2023-11-19T01:17:44;10.90;99.90
4390;DHT22;2209;48.982;8.406;2023-11-19T01:20:07;10.80;99.90
4390;DHT22;2209;48.982;8.406;2023-11-19T01:22:32;10.90;99.90
4390;DHT22;2209;48.982;8.406;2023-11-19T01:24:55;10.90;99.90
4390;DHT22;2209;48.982;8.406;2023-11-19T01:27:17;10.90;99.90
4390;DHT22;2209;48.982;8.406;2023-11-19T01:29:39;10.90;99.90
4390;DHT22;2209;48.982;8.406;2023-11-19T01:32:03;10.90;99.90
4390;DHT22;2209;48.982;8.406;2023-11-19T01:34:25;10.90;99.90
4390;DHT22;2209;48.982;8.406;2023-11-19T01:36:47;10.90;99.90
4390;DHT22;2209;48.982;8.406;2023-11-19T01:39:10;10.90;99.90
4390;DHT22;2209;48.982;8.406;2023-11-19T01:41:34;10.90;99.90
4390;DHT22;2209;48.982;8.406;2023-11-19T01:43:57;11.00;99.90
4390;DHT22;2209;48.982;8.406;2023-11-19T01:46:19;11.00;99.90
4390;DHT22;2209;48.982;8.406;2023-11-19T01:48:45;11.00;99.90
4390;DHT22;2209;48.982;8.406;2023-11-19T01:51:07;11.00;99.90
4390;DHT22;2209;48.982;8.406;2023-11-19T01:53:30;11.00;99.90
4390;DHT22;2209;48.982;8.406;2023-11-19T01:55:52;11.00;99.90
4390;DHT22;2209;48.982;8.406;2023-11-19T01:58:15;11.00;99.90
4390;DHT22;2209;48.982;8.406;2023-11-19T02:00:38;11.00;99.90
4390;DHT22;2209;48.982;8.406;2023-11-19T02:03:00;11.10;99.90
4390;DHT22;2209;48.982;8.406;2023-11-19T02:05:25;11.00;99.90
4390;DHT22;2209;48.982;8.406;2023-11-19T02:07:47;11.10;99.90
4390;DHT22;2209;48.982;8.406;2023-11-19T02:10:11;11.10;99.90
4390;DHT22;2209;48.982;8.406;2023-11-19T02:12:35;11.10;99.90
4390;DHT22;2209;48.982;8.406;2023-11-19T02:14:57;11.10;99.90
4390;DHT22;2209;48.982;8.406;2023-11-19T02:17:26;11.10;99.90
4390;DHT22;2209;48.982;8.406;2023-11-19T02:19:48;11.10;99.90
4390;DHT22;2209;48.982;8.406;2023-11-19T02:22:12;11.10;99.90
4390;DHT22;2209;48.982;8.406;2023-11-19T02:24:34;11.10;99.90
4390;DHT22;2209;48.982;8.406;2023-11-19T02:26:59;11.10;99.90
4390;DHT22;2209;48.982;8.406;2023-11-19T02:29:24;11.10;99.90
4390;DHT22;2209;48.982;8.406;2023-11-19T02:31:46;11.10;99.90
4390;DHT22;2209;48.982;8.406;2023-11-19T02:34:10;11.10;99.90
4390;DHT22;2209;48.982;8.406;2023-11-19T02:36:33;11.20;99.90
4390;DHT22;2209;48.982;8.406;2023-11-19T02:38:54;11.20;99.90
4390;DHT22;2209;48.982;8.406;2023-11-19T02:41:16;11.20;99.90
4390;DHT22;2209;48.982;8.406;2023-11-19T02:43:38;11.20;99.90
4390;DHT22;2209;48.982;8.406;2023-11-19T02:46:02;11.20;99.90
4390;DHT22;2209;48.982;8.406;2023-11-19T02:48:27;11.20;99.90
4390;DHT22;2209;48.982;8.406;2023-11-19T02:50:49;11.20;99.90
4390;DHT22;2209;48.982;8.406;2023-11-19T02:53:13;11.20;99.90
4390;DHT22;2209;48.982;8.406;2023-11-19T02:55:37;11.20;99.90
4390;DHT22;2209;48.982;8.406;2023-11-19T02:58:01;11.30;99.90
4390;DHT22;2209;48.982;8.406;2023-11-19T03:00:28;11.20;99.90
4390;DHT22;2209;48.982;8.406;2023-11-19T03:02:58;11.30;99.90
4390;DHT22;2209;48.982;8.406;2023-11-19T03:05:20;11.30;99.90
4390;DHT22;2209;48.982;8.406;2023-11-19T03:07:43;11.30;99.90
4390;DHT22;2209;48.982;8.406;2023-11-19T03:10:06;11.30;99.90
4390;DHT22;2209;48.982;8.406;2023-11-19T03:12:29;11.30;99.90
4390;DHT22;2209;48.982;8.406;2023-11-19T03:14:51;11.30;99.90
4390;DHT22;2209;48.982;8.406;2023-11-19T03:17:13;11.30;99.90
4390;DHT22;2209;48.982;8.406;2023-11-19T03:19:37;11.30;99.90
4390;DHT22;2209;48.982;8.406;2023-11-19T03:21:59;11.30;99.90
4390;DHT22;2209;48.982;8.406;2023-11-19T03:24:21;11.30;99.90
4390;DHT22;2209;48.982;8.406;2023-11-19T03:26:44;11.30;99.90
4390;DHT22;2209;48.982;8.406;2023-11-19T03:29:09;11.30;99.90
4390;DHT22;2209;48.982;8.406;2023-11-19T03:31:31;11.30;99.90
4390;DHT22;2209;48.982;8.406;2023-11-19T03:33:53;11.40;99.90
4390;DHT22;2209;48.982;8.406;2023-11-19T03:36:17;11.40;99.90
4390;DHT22;2209;48.982;8.406;2023-11-19T03:38:39;11.40;99.90
4390;DHT22;2209;48.982;8.406;2023-11-19T03:41:10;11.40;99.90
4390;DHT22;2209;48.982;8.406;2023-11-19T03:43:33;11.40;99.90
4390;DHT22;2209;48.982;8.406;2023-11-19T03:45:55;11.40;99.90
4390;DHT22;2209;48.982;8.406;2023-11-19T03:48:17;11.40;99.90
4390;DHT22;2209;48.982;8.406;2023-11-19T03:50:39;11.40;99.90
4390;DHT22;2209;48.982;8.406;2023-11-19T03:53:03;11.40;99.90
4390;DHT22;2209;48.982;8.406;2023-11-19T03:55:25;11.40;99.90
4390;DHT22;2209;48.982;8.406;2023-11-19T03:57:47;11.40;99.90
4390;DHT22;2209;48.982;8.406;2023-11-19T04:00:10;11.40;99.90
4390;DHT22;2209;48.982;8.406;2023-11-19T04:02:34;11.40;99.90
4390;DHT22;2209;48.982;8.406;2023-11-19T04:04:56;11.40;99.90
4390;DHT22;2209;48.982;8.406;2023-11-19T04:07:18;11.40;99.90
4390;DHT22;2209;48.982;8.406;2023-11-19T04:09:42;11.40;99.90
4390;DHT22;2209;48.982;8.406;2023-11-19T04:12:05;11.50;99.90
4390;DHT22;2209;48.982;8.406;2023-11-19T04:14:27;11.50;99.90
4390;DHT22;2209;48.982;8.406;2023-11-19T04:16:49;11.50;99.90
4390;DHT22;2209;48.982;8.406;2023-11-19T04:19:11;11.50;99.90
4390;DHT22;2209;48.982;8.406;2023-11-19T04:21:33;11.50;99.90
4390;DHT22;2209;48.982;8.406;2023-11-19T04:23:55;11.50;99.90
4390;DHT22;2209;48.982;8.406;2023-11-19T04:26:19;11.50;99.90
4390;DHT22;2209;48.982;8.406;2023-11-19T04:28:41;11.50;99.90
4390;DHT22;2209;48.982;8.406;2023-11-19T04:31:04;11.50;99.90
4390;DHT22;2209;48.982;8.406;2023-11-19T04:33:26;11.60;99.90
4390;DHT22;2209;48.982;8.406;2023-11-19T04:35:49;11.60;99.90
4390;DHT22;2209;48.982;8.406;2023-11-19T04:38:11;11.60;99.90
4390;DHT22;2209;48.982;8.406;2023-11-19T04:40:33;11.60;99.90
4390;DHT22;2209;48.982;8.406;2023-11-19T04:42:56;11.60;99.90
4390;DHT22;2209;48.982;8.406;2023-11-19T04:45:18;11.60;99.90
4390;DHT22;2209;48.982;8.406;2023-11-19T04:47:41;11.60;99.90
4390;DHT22;2209;48.982;8.406;2023-11-19T04:50:03;11.70;99.90
4390;DHT22;2209;48.982;8.406;2023-11-19T04:52:25;11.70;99.90
4390;DHT22;2209;48.982;8.406;2023-11-19T04:54:47;11.70;99.90
4390;DHT22;2209;48.982;8.406;2023-11-19T04:57:10;11.70;99.90
4390;DHT22;2209;48.982;8.406;2023-11-19T04:59:35;11.70;99.90
4390;DHT22;2209;48.982;8.406;2023-11-19T05:01:57;11.70;99.90
4390;DHT22;2209;48.982;8.406;2023-11-19T05:04:19;11.80;99.90
4390;DHT22;2209;48.982;8.406;2023-11-19T05:06:41;11.80;99.90
4390;DHT22;2209;48.982;8.406;2023-11-19T05:09:03;11.80;99.90
4390;DHT22;2209;48.982;8.406;2023-11-19T05:11:28;11.90;99.90
4390;DHT22;2209;48.982;8.406;2023-11-19T05:13:50;11.90;99.90
4390;DHT22;2209;48.982;8.406;2023-11-19T05:16:13;11.90;99.90
4390;DHT22;2209;48.982;8.406;2023-11-19T05:18:36;11.90;99.90
4390;DHT22;2209;48.982;8.406;2023-11-19T05:20:58;11.90;99.90
4390;DHT22;2209;48.982;8.406;2023-11-19T05:23:20;11.90;99.90
4390;DHT22;2209;48.982;8.406;2023-11-19T05:25:42;12.00;99.90
4390;DHT22;2209;48.982;8.406;2023-11-19T05:28:04;12.00;99.90
4390;DHT22;2209;48.982;8.406;2023-11-19T05:30:25;12.00;99.90
4390;DHT22;2209;48.982;8.406;2023-11-19T05:32:48;12.00;99.90
4390;DHT22;2209;48.982;8.406;2023-11-19T05:35:11;12.00;99.90
4390;DHT22;2209;48.982;8.406;2023-11-19T05:37:33;12.00;99.90
4390;DHT22;2209;48.982;8.406;2023-11-19T05:39:55;12.10;99.90
4390;DHT22;2209;48.982;8.406;2023-11-19T05:42:17;12.10;99.90
4390;DHT22;2209;48.982;8.406;2023-11-19T05:44:39;12.10;99.90
4390;DHT22;2209;48.982;8.406;2023-11-19T05:47:01;12.10;99.90
4390;DHT22;2209;48.982;8.406;2023-11-19T05:49:25;12.10;99.90
4390;DHT22;2209;48.982;8.406;2023-11-19T05:51:47;12.10;99.90
4390;DHT22;2209;48.982;8.406;2023-11-19T05:54:10;12.20;99.90
4390;DHT22;2209;48.982;8.406;2023-11-19T05:56:32;12.20;99.90
4390;DHT22;2209;48.982;8.406;2023-11-19T05:58:54;12.20;99.90
4390;DHT22;2209;48.982;8.406;2023-11-19T06:01:17;12.30;99.90
4390;DHT22;2209;48.982;8.406;2023-11-19T06:03:39;12.20;99.90
4390;DHT22;2209;48.982;8.406;2023-11-19T06:06:02;12.30;99.90
4390;DHT22;2209;48.982;8.406;2023-11-19T06:08:25;12.30;99.90
4390;DHT22;2209;48.982;8.406;2023-11-19T06:10:48;12.30;99.90
4390;DHT22;2209;48.982;8.406;2023-11-19T06:13:11;12.30;99.90
4390;DHT22;2209;48.982;8.406;2023-11-19T06:15:35;12.30;99.90
4390;DHT22;2209;48.982;8.406;2023-11-19T06:17:57;12.30;99.90
4390;DHT22;2209;48.982;8.406;2023-11-19T06:20:21;12.40;99.90
4390;DHT22;2209;48.982;8.406;2023-11-19T06:22:45;12.30;99.90
4390;DHT22;2209;48.982;8.406;2023-11-19T06:25:08;12.40;99.90
4390;DHT22;2209;48.982;8.406;2023-11-19T06:27:30;12.40;99.90
4390;DHT22;2209;48.982;8.406;2023-11-19T06:29:52;12.40;99.90
4390;DHT22;2209;48.982;8.406;2023-11-19T06:32:14;12.30;99.90
4390;DHT22;2209;48.982;8.406;2023-11-19T06:34:36;12.30;99.90
4390;DHT22;2209;48.982;8.406;2023-11-19T06:36:58;12.30;99.90
4390;DHT22;2209;48.982;8.406;2023-11-19T06:39:22;12.30;99.90
4390;DHT22;2209;48.982;8.406;2023-11-19T06:41:47;12.30;99.90
4390;DHT22;2209;48.982;8.406;2023-11-19T06:44:09;12.30;99.90
4390;DHT22;2209;48.982;8.406;2023-11-19T06:46:31;12.30;99.90
4390;DHT22;2209;48.982;8.406;2023-11-19T06:48:53;12.30;99.90
4390;DHT22;2209;48.982;8.406;2023-11-19T06:51:15;12.30;99.90
4390;DHT22;2209;48.982;8.406;2023-11-19T06:53:38;12.30;99.90
4390;DHT22;2209;48.982;8.406;2023-11-19T06:56:02;12.30;99.90
4390;DHT22;2209;48.982;8.406;2023-11-19T06:58:27;12.30;99.90
4390;DHT22;2209;48.982;8.406;2023-11-19T07:00:49;12.30;99.90
4390;DHT22;2209;48.982;8.406;2023-11-19T07:03:12;12.40;99.90
4390;DHT22;2209;48.982;8.406;2023-11-19T07:05:36;12.40;99.90
4390;DHT22;2209;48.982;8.406;2023-11-19T07:07:58;12.40;99.90
4390;DHT22;2209;48.982;8.406;2023-11-19T07:10:21;12.40;99.90
4390;DHT22;2209;48.982;8.406;2023-11-19T07:12:45;12.40;99.90
4390;DHT22;2209;48.982;8.406;2023-11-19T07:15:08;12.40;99.90
4390;DHT22;2209;48.982;8.406;2023-11-19T07:17:30;12.40;99.90
4390;DHT22;2209;48.982;8.406;2023-11-19T07:19:52;12.40;99.90
4390;DHT22;2209;48.982;8.406;2023-11-19T07:22:15;12.40;99.90
4390;DHT22;2209;48.982;8.406;2023-11-19T07:24:39;12.50;99.90
4390;DHT22;2209;48.982;8.406;2023-11-19T07:27:01;12.50;99.90
4390;DHT22;2209;48.982;8.406;2023-11-19T07:29:26;12.50;99.90
4390;DHT22;2209;48.982;8.406;2023-11-19T07:31:48;12.50;99.90
4390;DHT22;2209;48.982;8.406;2023-11-19T07:34:10;12.50;99.90
4390;DHT22;2209;48.982;8.406;2023-11-19T07:36:33;12.50;99.90
4390;DHT22;2209;48.982;8.406;2023-11-19T07:38:55;12.50;99.90
4390;DHT22;2209;48.982;8.406;2023-11-19T07:41:18;12.50;99.90
4390;DHT22;2209;48.982;8.406;2023-11-19T07:43:43;12.60;99.90
4390;DHT22;2209;48.982;8.406;2023-11-19T07:46:10;12.60;99.90
4390;DHT22;2209;48.982;8.406;2023-11-19T07:48:33;12.60;99.90
4390;DHT22;2209;48.982;8.406;2023-11-19T07:50:55;12.70;99.90
4390;DHT22;2209;48.982;8.406;2023-11-19T07:53:16;12.70;99.90
4390;DHT22;2209;48.982;8.406;2023-11-19T07:55:38;12.70;99.90
4390;DHT22;2209;48.982;8.406;2023-11-19T07:58:01;12.70;99.90
4390;DHT22;2209;48.982;8.406;2023-11-19T08:00:23;12.80;99.90
4390;DHT22;2209;48.982;8.406;2023-11-19T08:02:46;12.80;99.90
4390;DHT22;2209;48.982;8.406;2023-11-19T08:05:08;12.80;99.90
4390;DHT22;2209;48.982;8.406;2023-11-19T08:07:31;12.80;99.90
4390;DHT22;2209;48.982;8.406;2023-11-19T08:09:53;12.80;99.90
4390;DHT22;2209;48.982;8.406;2023-11-19T08:12:15;12.80;99.90
4390;DHT22;2209;48.982;8.406;2023-11-19T08:14:38;12.80;99.90
4390;DHT22;2209;48.982;8.406;2023-11-19T08:17:00;12.80;99.90
4390;DHT22;2209;48.982;8.406;2023-11-19T08:19:23;12.80;99.90
4390;DHT22;2209;48.982;8.406;2023-11-19T08:21:45;12.90;99.90
4390;DHT22;2209;48.982;8.406;2023-11-19T08:24:07;12.90;99.90
4390;DHT22;2209;48.982;8.406;2023-11-19T08:26:30;12.90;99.90
4390;DHT22;2209;48.982;8.406;2023-11-19T08:28:52;12.90;99.90
4390;DHT22;2209;48.982;8.406;2023-11-19T08:31:14;12.90;99.90
4390;DHT22;2209;48.982;8.406;2023-11-19T08:33:36;12.90;99.90
4390;DHT22;2209;48.982;8.406;2023-11-19T08:35:59;12.90;99.90
4390;DHT22;2209;48.982;8.406;2023-11-19T08:38:21;12.90;99.90
4390;DHT22;2209;48.982;8.406;2023-11-19T08:40:44;12.90;99.90
4390;DHT22;2209;48.982;8.406;2023-11-19T08:43:06;13.00;99.90
4390;DHT22;2209;48.982;8.406;2023-11-19T08:45:28;13.00;99.90
4390;DHT22;2209;48.982;8.406;2023-11-19T08:47:50;13.00;99.90
4390;DHT22;2209;48.982;8.406;2023-11-19T08:50:12;13.00;99.90
4390;DHT22;2209;48.982;8.406;2023-11-19T08:52:35;13.00;99.90
4390;DHT22;2209;48.982;8.406;2023-11-19T08:54:57;13.10;99.90
4390;DHT22;2209;48.982;8.406;2023-11-19T08:57:19;13.00;99.90
4390;DHT22;2209;48.982;8.406;2023-11-19T08:59:41;13.10;99.90
4390;DHT22;2209;48.982;8.406;2023-11-19T09:02:04;13.10;99.90
4390;DHT22;2209;48.982;8.406;2023-11-19T09:04:27;13.10;99.90
4390;DHT22;2209;48.982;8.406;2023-11-19T09:06:49;13.10;99.90
4390;DHT22;2209;48.982;8.406;2023-11-19T09:09:13;13.10;99.90
4390;DHT22;2209;48.982;8.406;2023-11-19T09:11:35;13.10;99.90
4390;DHT22;2209;48.982;8.406;2023-11-19T09:13:57;13.10;99.90
4390;DHT22;2209;48.982;8.406;2023-11-19T09:16:19;13.10;99.90
4390;DHT22;2209;48.982;8.406;2023-11-19T09:18:42;13.00;99.90
4390;DHT22;2209;48.982;8.406;2023-11-19T09:21:05;13.00;99.90
4390;DHT22;2209;48.982;8.406;2023-11-19T09:23:27;13.00;99.90
4390;DHT22;2209;48.982;8.406;2023-11-19T09:25:51;13.00;99.90
4390;DHT22;2209;48.982;8.406;2023-11-19T09:28:13;13.00;99.90
4390;DHT22;2209;48.982;8.406;2023-11-19T09:30:36;13.10;99.90
4390;DHT22;2209;48.982;8.406;2023-11-19T09:32:58;13.00;99.90
4390;DHT22;2209;48.982;8.406;2023-11-19T09:35:20;13.00;99.90
4390;DHT22;2209;48.982;8.406;2023-11-19T09:37:43;13.10;99.90
4390;DHT22;2209;48.982;8.406;2023-11-19T09:40:07;13.10;99.90
4390;DHT22;2209;48.982;8.406;2023-11-19T09:42:39;13.10;99.90
4390;DHT22;2209;48.982;8.406;2023-11-19T09:45:06;13.10;99.90
4390;DHT22;2209;48.982;8.406;2023-11-19T09:47:34;13.10;99.90
4390;DHT22;2209;48.982;8.406;2023-11-19T09:49:56;13.20;99.90
4390;DHT22;2209;48.982;8.406;2023-11-19T09:52:18;13.20;99.90
4390;DHT22;2209;48.982;8.406;2023-11-19T09:54:40;13.20;99.90
4390;DHT22;2209;48.982;8.406;2023-11-19T09:57:03;13.30;99.90
4390;DHT22;2209;48.982;8.406;2023-11-19T09:59:28;13.30;99.90
4390;DHT22;2209;48.982;8.406;2023-11-19T10:01:50;13.40;99.90
4390;DHT22;2209;48.982;8.406;2023-11-19T10:04:15;13.40;99.90
4390;DHT22;2209;48.982;8.406;2023-11-19T10:06:37;13.40;99.90
4390;DHT22;2209;48.982;8.406;2023-11-19T10:08:59;13.50;99.90
4390;DHT22;2209;48.982;8.406;2023-11-19T10:11:21;13.50;99.90
4390;DHT22;2209;48.982;8.406;2023-11-19T10:13:43;13.50;99.90
4390;DHT22;2209;48.982;8.406;2023-11-19T10:16:12;13.60;99.90
4390;DHT22;2209;48.982;8.406;2023-11-19T10:18:34;13.60;99.90
4390;DHT22;2209;48.982;8.406;2023-11-19T10:20:58;13.70;99.90
4390;DHT22;2209;48.982;8.406;2023-11-19T10:23:20;13.70;99.90
4390;DHT22;2209;48.982;8.406;2023-11-19T10:25:42;13.70;99.90
4390;DHT22;2209;48.982;8.406;2023-11-19T10:28:04;13.70;99.90
4390;DHT22;2209;48.982;8.406;2023-11-19T10:30:27;13.80;99.90
4390;DHT22;2209;48.982;8.406;2023-11-19T10:33:04;13.80;99.90
4390;DHT22;2209;48.982;8.406;2023-11-19T10:35:27;13.80;99.90
4390;DHT22;2209;48.982;8.406;2023-11-19T10:37:49;13.80;99.90
4390;DHT22;2209;48.982;8.406;2023-11-19T10:40:12;13.80;99.90
4390;DHT22;2209;48.982;8.406;2023-11-19T10:42:34;13.80;99.90
4390;DHT22;2209;48.982;8.406;2023-11-19T10:44:56;13.80;99.90
4390;DHT22;2209;48.982;8.406;2023-11-19T10:47:19;13.80;99.90
4390;DHT22;2209;48.982;8.406;2023-11-19T10:49:42;13.90;99.90
4390;DHT22;2209;48.982;8.406;2023-11-19T10:52:08;13.90;99.90
4390;DHT22;2209;48.982;8.406;2023-11-19T10:54:31;13.90;99.90
4390;DHT22;2209;48.982;8.406;2023-11-19T10:56:57;13.90;99.90
4390;DHT22;2209;48.982;8.406;2023-11-19T10:59:21;13.90;99.90
4390;DHT22;2209;48.982;8.406;2023-11-19T11:01:45;13.90;99.90
4390;DHT22;2209;48.982;8.406;2023-11-19T11:04:13;14.00;99.90
4390;DHT22;2209;48.982;8.406;2023-11-19T11:06:37;14.00;99.90
4390;DHT22;2209;48.982;8.406;2023-11-19T11:09:00;14.00;99.90
4390;DHT22;2209;48.982;8.406;2023-11-19T11:11:22;14.00;99.90
4390;DHT22;2209;48.982;8.406;2023-11-19T11:13:47;14.00;99.90
4390;DHT22;2209;48.982;8.406;2023-11-19T11:16:09;14.00;99.90
4390;DHT22;2209;48.982;8.406;2023-11-19T11:18:32;14.00;99.90
4390;DHT22;2209;48.982;8.406;2023-11-19T11:20:57;14.00;99.90
4390;DHT22;2209;48.982;8.406;2023-11-19T11:26:40;14.10;99.90
4390;DHT22;2209;48.982;8.406;2023-11-19T11:29:10;14.10;99.90
4390;DHT22;2209;48.982;8.406;2023-11-19T11:31:40;14.20;99.90
4390;DHT22;2209;48.982;8.406;2023-11-19T11:34:18;14.20;99.90
4390;DHT22;2209;48.982;8.406;2023-11-19T11:36:51;14.30;99.90
4390;DHT22;2209;48.982;8.406;2023-11-19T11:39:16;14.20;99.90
4390;DHT22;2209;48.982;8.406;2023-11-19T11:41:44;14.20;99.90
4390;DHT22;2209;48.982;8.406;2023-11-19T11:44:07;14.20;99.90
4390;DHT22;2209;48.982;8.406;2023-11-19T11:46:54;14.10;99.90
4390;DHT22;2209;48.982;8.406;2023-11-19T11:49:25;14.10;99.90
4390;DHT22;2209;48.982;8.406;2023-11-19T11:52:01;14.10;99.90
4390;DHT22;2209;48.982;8.406;2023-11-19T11:54:27;14.10;99.90
4390;DHT22;2209;48.982;8.406;2023-11-19T11:57:12;14.20;99.90
4390;DHT22;2209;48.982;8.406;2023-11-19T11:59:51;14.10;99.90
4390;DHT22;2209;48.982;8.406;2023-11-19T12:02:15;14.20;99.90
4390;DHT22;2209;48.982;8.406;2023-11-19T12:04:39;14.20;99.90
4390;DHT22;2209;48.982;8.406;2023-11-19T12:07:05;14.20;99.90
4390;DHT22;2209;48.982;8.406;2023-11-19T12:09:27;14.30;99.90
4390;DHT22;2209;48.982;8.406;2023-11-19T12:11:50;14.30;99.90
4390;DHT22;2209;48.982;8.406;2023-11-19T12:15:04;14.30;99.90
4390;DHT22;2209;48.982;8.406;2023-11-19T12:17:46;14.30;99.90
4390;DHT22;2209;48.982;8.406;2023-11-19T12:20:10;14.30;99.90
4390;DHT22;2209;48.982;8.406;2023-11-19T12:22:32;14.40;99.90
4390;DHT22;2209;48.982;8.406;2023-11-19T12:24:54;14.50;99.90
4390;DHT22;2209;48.982;8.406;2023-11-19T12:27:17;14.50;99.90
4390;DHT22;2209;48.982;8.406;2023-11-19T12:29:42;14.50;99.90
4390;DHT22;2209;48.982;8.406;2023-11-19T12:32:06;14.60;99.90
4390;DHT22;2209;48.982;8.406;2023-11-19T12:34:28;14.60;99.90
4390;DHT22;2209;48.982;8.406;2023-11-19T12:36:50;14.60;99.90
4390;DHT22;2209;48.982;8.406;2023-11-19T12:39:12;14.70;99.90
4390;DHT22;2209;48.982;8.406;2023-11-19T12:41:49;14.70;99.90
4390;DHT22;2209;48.982;8.406;2023-11-19T12:44:11;14.80;99.90
4390;DHT22;2209;48.982;8.406;2023-11-19T12:46:33;14.80;99.90
4390;DHT22;2209;48.982;8.406;2023-11-19T12:48:56;14.80;99.90
4390;DHT22;2209;48.982;8.406;2023-11-19T12:51:18;14.90;99.90
4390;DHT22;2209;48.982;8.406;2023-11-19T12:53:49;14.90;99.90
4390;DHT22;2209;48.982;8.406;2023-11-19T12:56:12;14.90;99.90
4390;DHT22;2209;48.982;8.406;2023-11-19T12:58:35;14.90;99.90
4390;DHT22;2209;48.982;8.406;2023-11-19T13:01:01;14.90;99.90
4390;DHT22;2209;48.982;8.406;2023-11-19T13:03:29;14.90;99.90
4390;DHT22;2209;48.982;8.406;2023-11-19T13:06:01;14.90;99.90
4390;DHT22;2209;48.982;8.406;2023-11-19T13:08:23;14.90;99.90
4390;DHT22;2209;48.982;8.406;2023-11-19T13:10:54;14.90;99.90
4390;DHT22;2209;48.982;8.406;2023-11-19T13:13:16;15.00;99.90
4390;DHT22;2209;48.982;8.406;2023-11-19T13:15:39;15.00;99.90
4390;DHT22;2209;48.982;8.406;2023-11-19T13:18:02;15.10;99.90
4390;DHT22;2209;48.982;8.406;2023-11-19T13:20:24;15.20;99.90
4390;DHT22;2209;48.982;8.406;2023-11-19T13:22:55;15.30;99.90
4390;DHT22;2209;48.982;8.406;2023-11-19T13:25:18;15.30;99.90
4390;DHT22;2209;48.982;8.406;2023-11-19T13:27:40;15.40;99.90
4390;DHT22;2209;48.982;8.406;2023-11-19T13:30:04;15.40;99.90
4390;DHT22;2209;48.982;8.406;2023-11-19T13:32:27;15.40;99.90
4390;DHT22;2209;48.982;8.406;2023-11-19T13:34:49;15.40;99.90
4390;DHT22;2209;48.982;8.406;2023-11-19T13:37:11;15.50;99.90
4390;DHT22;2209;48.982;8.406;2023-11-19T13:39:35;15.50;99.90
4390;DHT22;2209;48.982;8.406;2023-11-19T13:41:57;15.50;99.90
4390;DHT22;2209;48.982;8.406;2023-11-19T13:44:20;15.50;99.90
4390;DHT22;2209;48.982;8.406;2023-11-19T13:46:44;15.50;99.90
4390;DHT22;2209;48.982;8.406;2023-11-19T13:49:06;15.50;99.90
4390;DHT22;2209;48.982;8.406;2023-11-19T13:51:28;15.50;99.90
4390;DHT22;2209;48.982;8.406;2023-11-19T13:53:50;15.50;99.90
4390;DHT22;2209;48.982;8.406;2023-11-19T13:56:14;15.60;99.90
4390;DHT22;2209;48.982;8.406;2023-11-19T13:58:36;15.50;99.90
4390;DHT22;2209;48.982;8.406;2023-11-19T14:00:58;15.50;99.90
4390;DHT22;2209;48.982;8.406;2023-11-19T14:03:20;15.50;99.90
4390;DHT22;2209;48.982;8.406;2023-11-19T14:05:42;15.50;99.90
4390;DHT22;2209;48.982;8.406;2023-11-19T14:08:04;15.50;99.90
4390;DHT22;2209;48.982;8.406;2023-11-19T14:10:31;15.50;99.90
4390;DHT22;2209;48.982;8.406;2023-11-19T14:12:55;15.50;99.90
4390;DHT22;2209;48.982;8.406;2023-11-19T14:15:17;15.50;99.90
4390;DHT22;2209;48.982;8.406;2023-11-19T14:17:40;15.50;99.90
4390;DHT22;2209;48.982;8.406;2023-11-19T14:20:02;15.50;99.90
4390;DHT22;2209;48.982;8.406;2023-11-19T14:22:25;15.50;99.90
4390;DHT22;2209;48.982;8.406;2023-11-19T14:24:47;15.50;99.90
4390;DHT22;2209;48.982;8.406;2023-11-19T14:27:09;15.50;99.90
4390;DHT22;2209;48.982;8.406;2023-11-19T14:29:32;15.50;99.90
4390;DHT22;2209;48.982;8.406;2023-11-19T14:31:54;15.60;99.90
4390;DHT22;2209;48.982;8.406;2023-11-19T14:34:16;15.60;99.90
4390;DHT22;2209;48.982;8.406;2023-11-19T14:36:40;15.70;99.90
4390;DHT22;2209;48.982;8.406;2023-11-19T14:39:02;15.70;99.90
4390;DHT22;2209;48.982;8.406;2023-11-19T14:41:24;15.70;99.90
4390;DHT22;2209;48.982;8.406;2023-11-19T14:43:46;15.70;99.90
4390;DHT22;2209;48.982;8.406;2023-11-19T14:46:10;15.70;99.90
4390;DHT22;2209;48.982;8.406;2023-11-19T14:48:32;15.70;99.90
4390;DHT22;2209;48.982;8.406;2023-11-19T14:50:54;15.70;99.90
4390;DHT22;2209;48.982;8.406;2023-11-19T14:53:16;15.70;99.90
4390;DHT22;2209;48.982;8.406;2023-11-19T14:55:38;15.70;99.90
4390;DHT22;2209;48.982;8.406;2023-11-19T14:58:01;15.70;99.90
4390;DHT22;2209;48.982;8.406;2023-11-19T15:00:23;15.70;99.90
4390;DHT22;2209;48.982;8.406;2023-11-19T15:02:47;15.70;99.90
4390;DHT22;2209;48.982;8.406;2023-11-19T15:05:09;15.70;99.90
4390;DHT22;2209;48.982;8.406;2023-11-19T15:07:31;15.70;99.90
4390;DHT22;2209;48.982;8.406;2023-11-19T15:09:54;15.70;99.90
4390;DHT22;2209;48.982;8.406;2023-11-19T15:12:16;15.70;99.90
4390;DHT22;2209;48.982;8.406;2023-11-19T15:14:38;15.70;99.90
4390;DHT22;2209;48.982;8.406;2023-11-19T15:17:00;15.70;99.90
4390;DHT22;2209;48.982;8.406;2023-11-19T15:19:23;15.70;99.90
4390;DHT22;2209;48.982;8.406;2023-11-19T15:21:45;15.70;99.90
4390;DHT22;2209;48.982;8.406;2023-11-19T15:24:08;15.60;99.90
4390;DHT22;2209;48.982;8.406;2023-11-19T15:26:31;15.60;99.90
4390;DHT22;2209;48.982;8.406;2023-11-19T15:28:53;15.60;99.90
4390;DHT22;2209;48.982;8.406;2023-11-19T15:31:16;15.60;99.90
4390;DHT22;2209;48.982;8.406;2023-11-19T15:33:38;15.60;99.90
4390;DHT22;2209;48.982;8.406;2023-11-19T15:36:02;15.60;99.90
4390;DHT22;2209;48.982;8.406;2023-11-19T15:38:28;15.50;99.90
4390;DHT22;2209;48.982;8.406;2023-11-19T15:40:50;15.50;99.90